sensor_id;sensor_type;location;lat;lon;timestamp;temperature;humidity
3614;DHT22;1821;50.936;6.854;2023-04-03T00:00:23;4.20;99.90
3614;DHT22;1821;50.936;6.854;2023-04-03T00:01:05;4.10;99.90
3614;DHT22;1821;50.936;6.854;2023-04-03T00:01:47;4.10;99.90
3614;DHT22;1821;50.936;6.854;2023-04-03T00:02:29;4.00;99.90
3614;DHT22;1821;50.936;6.854;2023-04-03T00:03:11;4.10;99.90
3614;DHT22;1821;50.936;6.854;2023-04-03T00:03:54;4.00;99.90
3614;DHT22;1821;50.936;6.854;2023-04-03T00:04:36;4.10;99.90
3614;DHT22;1821;50.936;6.854;2023-04-03T00:05:18;4.10;99.90
3614;DHT22;1821;50.936;6.854;2023-04-03T00:06:01;4.20;99.90
3614;DHT22;1821;50.936;6.854;2023-04-03T00:06:43;3.90;99.90
3614;DHT22;1821;50.936;6.854;2023-04-03T00:07:25;4.00;99.90
3614;DHT22;1821;50.936;6.854;2023-04-03T00:08:07;3.90;99.90
3614;DHT22;1821;50.936;6.854;2023-04-03T00:08:51;3.80;99.90
3614;DHT22;1821;50.936;6.854;2023-04-03T00:09:33;3.90;99.90
3614;DHT22;1821;50.936;6.854;2023-04-03T00:10:15;4.10;99.90
3614;DHT22;1821;50.936;6.854;2023-04-03T00:10:57;3.80;99.90
3614;DHT22;1821;50.936;6.854;2023-04-03T00:11:39;3.80;99.90
3614;DHT22;1821;50.936;6.854;2023-04-03T00:12:21;4.00;99.90
3614;DHT22;1821;50.936;6.854;2023-04-03T00:13:04;3.90;99.90
3614;DHT22;1821;50.936;6.854;2023-04-03T00:13:47;4.00;99.90
3614;DHT22;1821;50.936;6.854;2023-04-03T00:14:29;3.60;99.90
3614;DHT22;1821;50.936;6.854;2023-04-03T00:15:11;3.80;99.90
3614;DHT22;1821;50.936;6.854;2023-04-03T00:15:53;4.20;99.90
3614;DHT22;1821;50.936;6.854;2023-04-03T00:16:35;3.90;99.90
3614;DHT22;1821;50.936;6.854;2023-04-03T00:17:17;3.80;99.90
3614;DHT22;1821;50.936;6.854;2023-04-03T00:17:59;3.50;99.90
3614;DHT22;1821;50.936;6.854;2023-04-03T00:18:41;3.60;99.90
3614;DHT22;1821;50.936;6.854;2023-04-03T00:19:23;3.80;99.90
3614;DHT22;1821;50.936;6.854;2023-04-03T00:20:06;3.60;99.90
3614;DHT22;1821;50.936;6.854;2023-04-03T00:20:48;3.70;99.90
3614;DHT22;1821;50.936;6.854;2023-04-03T00:21:30;3.90;99.90
3614;DHT22;1821;50.936;6.854;2023-04-03T00:22:13;5.50;99.90
3614;DHT22;1821;50.936;6.854;2023-04-03T00:22:55;3.60;99.90
3614;DHT22;1821;50.936;6.854;2023-04-03T00:23:40;3.90;99.90
3614;DHT22;1821;50.936;6.854;2023-04-03T00:24:22;3.70;99.90
3614;DHT22;1821;50.936;6.854;2023-04-03T00:25:04;3.60;99.90
3614;DHT22;1821;50.936;6.854;2023-04-03T00:25:46;3.70;99.90
3614;DHT22;1821;50.936;6.854;2023-04-03T00:26:28;3.50;99.90
3614;DHT22;1821;50.936;6.854;2023-04-03T00:27:10;3.60;99.90
3614;DHT22;1821;50.936;6.854;2023-04-03T00:27:52;3.70;99.90
3614;DHT22;1821;50.936;6.854;2023-04-03T00:28:34;3.70;99.90
3614;DHT22;1821;50.936;6.854;2023-04-03T00:29:16;3.30;99.90
3614;DHT22;1821;50.936;6.854;2023-04-03T00:29:58;3.40;99.90
3614;DHT22;1821;50.936;6.854;2023-04-03T00:30:40;3.70;99.90
3614;DHT22;1821;50.936;6.854;2023-04-03T00:31:22;4.00;99.90
3614;DHT22;1821;50.936;6.854;2023-04-03T00:32:04;3.50;99.90
3614;DHT22;1821;50.936;6.854;2023-04-03T00:32:48;3.60;99.90
3614;DHT22;1821;50.936;6.854;2023-04-03T00:33:30;3.60;99.90
3614;DHT22;1821;50.936;6.854;2023-04-03T00:34:15;3.20;99.90
3614;DHT22;1821;50.936;6.854;2023-04-03T00:34:57;3.40;99.90
3614;DHT22;1821;50.936;6.854;2023-04-03T00:35:39;3.70;99.90
3614;DHT22;1821;50.936;6.854;2023-04-03T00:36:22;3.50;99.90
3614;DHT22;1821;50.936;6.854;2023-04-03T00:37:04;3.40;99.90
3614;DHT22;1821;50.936;6.854;2023-04-03T00:37:47;3.60;99.90
3614;DHT22;1821;50.936;6.854;2023-04-03T00:38:29;4.10;99.90
3614;DHT22;1821;50.936;6.854;2023-04-03T00:39:11;3.60;99.90
3614;DHT22;1821;50.936;6.854;2023-04-03T00:39:53;3.40;99.90
3614;DHT22;1821;50.936;6.854;2023-04-03T00:40:39;3.20;99.90
3614;DHT22;1821;50.936;6.854;2023-04-03T00:41:22;3.40;99.90
3614;DHT22;1821;50.936;6.854;2023-04-03T00:42:04;3.40;99.90
3614;DHT22;1821;50.936;6.854;2023-04-03T00:42:49;3.30;99.90
3614;DHT22;1821;50.936;6.854;2023-04-03T00:43:33;3.50;99.90
3614;DHT22;1821;50.936;6.854;2023-04-03T00:45:28;3.50;99.90
3614;DHT22;1821;50.936;6.854;2023-04-03T00:46:13;3.40;99.90
3614;DHT22;1821;50.936;6.854;2023-04-03T00:46:55;3.30;99.90
3614;DHT22;1821;50.936;6.854;2023-04-03T00:47:41;3.60;99.90
3614;DHT22;1821;50.936;6.854;2023-04-03T00:48:36;3.40;99.90
3614;DHT22;1821;50.936;6.854;2023-04-03T00:49:19;3.30;99.90
3614;DHT22;1821;50.936;6.854;2023-04-03T00:50:01;3.30;99.90
3614;DHT22;1821;50.936;6.854;2023-04-03T00:50:44;3.30;99.90
3614;DHT22;1821;50.936;6.854;2023-04-03T00:51:26;3.20;99.90
3614;DHT22;1821;50.936;6.854;2023-04-03T00:52:13;3.30;99.90
3614;DHT22;1821;50.936;6.854;2023-04-03T00:52:57;3.50;99.90
3614;DHT22;1821;50.936;6.854;2023-04-03T00:53:55;3.20;99.90
3614;DHT22;1821;50.936;6.854;2023-04-03T00:54:40;3.30;99.90
3614;DHT22;1821;50.936;6.854;2023-04-03T00:55:24;2.90;99.90
3614;DHT22;1821;50.936;6.854;2023-04-03T00:56:09;3.50;99.90
3614;DHT22;1821;50.936;6.854;2023-04-03T00:56:54;3.00;99.90
3614;DHT22;1821;50.936;6.854;2023-04-03T00:57:40;3.40;99.90
3614;DHT22;1821;50.936;6.854;2023-04-03T00:58:28;3.30;99.90
3614;DHT22;1821;50.936;6.854;2023-04-03T00:59:16;3.20;99.90
3614;DHT22;1821;50.936;6.854;2023-04-03T01:00:11;3.20;99.90
3614;DHT22;1821;50.936;6.854;2023-04-03T01:00:55;3.00;99.90
3614;DHT22;1821;50.936;6.854;2023-04-03T01:01:39;3.20;99.90
3614;DHT22;1821;50.936;6.854;2023-04-03T01:02:21;3.30;99.90
3614;DHT22;1821;50.936;6.854;2023-04-03T01:03:04;3.30;99.90
3614;DHT22;1821;50.936;6.854;2023-04-03T01:03:46;4.00;99.90
3614;DHT22;1821;50.936;6.854;2023-04-03T01:04:38;3.00;99.90
3614;DHT22;1821;50.936;6.854;2023-04-03T01:05:22;3.00;99.90
3614;DHT22;1821;50.936;6.854;2023-04-03T01:06:04;3.00;99.90
3614;DHT22;1821;50.936;6.854;2023-04-03T01:06:49;2.90;99.90
3614;DHT22;1821;50.936;6.854;2023-04-03T01:07:32;3.30;99.90
3614;DHT22;1821;50.936;6.854;2023-04-03T01:08:16;3.00;99.90
3614;DHT22;1821;50.936;6.854;2023-04-03T01:08:59;3.20;99.90
3614;DHT22;1821;50.936;6.854;2023-04-03T01:10:26;3.00;99.90
3614;DHT22;1821;50.936;6.854;2023-04-03T01:11:09;2.90;99.90
3614;DHT22;1821;50.936;6.854;2023-04-03T01:11:51;2.70;99.90
3614;DHT22;1821;50.936;6.854;2023-04-03T01:12:37;3.00;99.90
3614;DHT22;1821;50.936;6.854;2023-04-03T01:13:28;3.10;99.90
3614;DHT22;1821;50.936;6.854;2023-04-03T01:14:10;2.90;99.90
3614;DHT22;1821;50.936;6.854;2023-04-03T01:14:58;3.20;99.90
3614;DHT22;1821;50.936;6.854;2023-04-03T01:15:40;2.80;99.90
3614;DHT22;1821;50.936;6.854;2023-04-03T01:16:24;3.00;99.90
3614;DHT22;1821;50.936;6.854;2023-04-03T01:18:17;3.20;99.90
3614;DHT22;1821;50.936;6.854;2023-04-03T01:19:00;2.90;99.90
3614;DHT22;1821;50.936;6.854;2023-04-03T01:19:45;2.80;99.90
3614;DHT22;1821;50.936;6.854;2023-04-03T01:20:35;2.70;99.90
3614;DHT22;1821;50.936;6.854;2023-04-03T01:22:45;2.90;99.90
3614;DHT22;1821;50.936;6.854;2023-04-03T01:25:43;2.80;99.90
3614;DHT22;1821;50.936;6.854;2023-04-03T01:26:25;2.80;99.90
3614;DHT22;1821;50.936;6.854;2023-04-03T01:27:09;2.90;99.90
3614;DHT22;1821;50.936;6.854;2023-04-03T01:27:52;2.70;99.90
3614;DHT22;1821;50.936;6.854;2023-04-03T01:28:35;2.80;99.90
3614;DHT22;1821;50.936;6.854;2023-04-03T01:29:18;2.80;99.90
3614;DHT22;1821;50.936;6.854;2023-04-03T01:30:00;2.80;99.90
3614;DHT22;1821;50.936;6.854;2023-04-03T01:31:48;2.70;99.90
3614;DHT22;1821;50.936;6.854;2023-04-03T01:32:30;2.80;99.90
3614;DHT22;1821;50.936;6.854;2023-04-03T01:33:12;2.90;99.90
3614;DHT22;1821;50.936;6.854;2023-04-03T01:33:56;2.80;99.90
3614;DHT22;1821;50.936;6.854;2023-04-03T01:34:39;2.80;99.90
3614;DHT22;1821;50.936;6.854;2023-04-03T01:35:21;2.50;99.90
3614;DHT22;1821;50.936;6.854;2023-04-03T01:36:03;2.70;99.90
3614;DHT22;1821;50.936;6.854;2023-04-03T01:36:46;2.70;99.90
3614;DHT22;1821;50.936;6.854;2023-04-03T01:37:27;3.20;99.90
3614;DHT22;1821;50.936;6.854;2023-04-03T01:38:10;2.40;99.90
3614;DHT22;1821;50.936;6.854;2023-04-03T01:38:53;2.60;99.90
3614;DHT22;1821;50.936;6.854;2023-04-03T01:39:35;3.00;99.90
3614;DHT22;1821;50.936;6.854;2023-04-03T01:40:17;2.70;99.90
3614;DHT22;1821;50.936;6.854;2023-04-03T01:40:59;2.70;99.90
3614;DHT22;1821;50.936;6.854;2023-04-03T01:41:41;2.70;99.90
3614;DHT22;1821;50.936;6.854;2023-04-03T01:42:23;2.90;99.90
3614;DHT22;1821;50.936;6.854;2023-04-03T01:43:05;2.90;99.90
3614;DHT22;1821;50.936;6.854;2023-04-03T01:43:48;2.50;99.90
3614;DHT22;1821;50.936;6.854;2023-04-03T01:44:33;2.30;99.90
3614;DHT22;1821;50.936;6.854;2023-04-03T01:45:15;2.60;99.90
3614;DHT22;1821;50.936;6.854;2023-04-03T01:45:57;2.40;99.90
3614;DHT22;1821;50.936;6.854;2023-04-03T01:46:39;2.40;99.90
3614;DHT22;1821;50.936;6.854;2023-04-03T01:47:23;2.40;99.90
3614;DHT22;1821;50.936;6.854;2023-04-03T01:48:06;2.80;99.90
3614;DHT22;1821;50.936;6.854;2023-04-03T01:48:50;2.70;99.90
3614;DHT22;1821;50.936;6.854;2023-04-03T01:49:32;2.60;99.90
3614;DHT22;1821;50.936;6.854;2023-04-03T01:50:14;1.90;99.90
3614;DHT22;1821;50.936;6.854;2023-04-03T01:50:56;2.60;99.90
3614;DHT22;1821;50.936;6.854;2023-04-03T01:51:39;2.40;99.90
3614;DHT22;1821;50.936;6.854;2023-04-03T01:52:22;2.50;99.90
3614;DHT22;1821;50.936;6.854;2023-04-03T01:53:04;2.50;99.90
3614;DHT22;1821;50.936;6.854;2023-04-03T01:53:45;2.10;99.90
3614;DHT22;1821;50.936;6.854;2023-04-03T01:54:30;2.50;99.90
3614;DHT22;1821;50.936;6.854;2023-04-03T01:55:11;2.50;99.90
3614;DHT22;1821;50.936;6.854;2023-04-03T01:55:55;2.90;99.90
3614;DHT22;1821;50.936;6.854;2023-04-03T01:56:40;2.40;99.90
3614;DHT22;1821;50.936;6.854;2023-04-03T01:57:22;2.40;99.90
3614;DHT22;1821;50.936;6.854;2023-04-03T01:58:04;2.40;99.90
3614;DHT22;1821;50.936;6.854;2023-04-03T01:58:46;2.60;99.90
3614;DHT22;1821;50.936;6.854;2023-04-03T01:59:30;2.80;99.90
3614;DHT22;1821;50.936;6.854;2023-04-03T02:00:12;2.50;99.90
3614;DHT22;1821;50.936;6.854;2023-04-03T02:00:55;2.60;99.90
3614;DHT22;1821;50.936;6.854;2023-04-03T02:01:37;2.50;99.90
3614;DHT22;1821;50.936;6.854;2023-04-03T02:02:19;2.50;99.90
3614;DHT22;1821;50.936;6.854;2023-04-03T02:03:02;3.00;99.90
3614;DHT22;1821;50.936;6.854;2023-04-03T02:03:44;2.10;99.90
3614;DHT22;1821;50.936;6.854;2023-04-03T02:04:26;2.90;99.90
3614;DHT22;1821;50.936;6.854;2023-04-03T02:05:09;2.40;99.90
3614;DHT22;1821;50.936;6.854;2023-04-03T02:05:53;2.40;99.90
3614;DHT22;1821;50.936;6.854;2023-04-03T02:06:35;2.50;99.90
3614;DHT22;1821;50.936;6.854;2023-04-03T02:07:17;2.40;99.90
3614;DHT22;1821;50.936;6.854;2023-04-03T02:07:59;2.50;99.90
3614;DHT22;1821;50.936;6.854;2023-04-03T02:08:41;2.40;99.90
3614;DHT22;1821;50.936;6.854;2023-04-03T02:09:23;2.30;99.90
3614;DHT22;1821;50.936;6.854;2023-04-03T02:10:05;2.40;99.90
3614;DHT22;1821;50.936;6.854;2023-04-03T02:10:48;2.80;99.90
3614;DHT22;1821;50.936;6.854;2023-04-03T02:11:30;2.60;99.90
3614;DHT22;1821;50.936;6.854;2023-04-03T02:12:12;2.30;99.90
3614;DHT22;1821;50.936;6.854;2023-04-03T02:12:57;2.80;99.90
3614;DHT22;1821;50.936;6.854;2023-04-03T02:13:39;2.80;99.90
3614;DHT22;1821;50.936;6.854;2023-04-03T02:14:21;2.30;99.90
3614;DHT22;1821;50.936;6.854;2023-04-03T02:15:05;3.10;99.90
3614;DHT22;1821;50.936;6.854;2023-04-03T02:15:47;2.40;99.90
3614;DHT22;1821;50.936;6.854;2023-04-03T02:16:29;2.30;99.90
3614;DHT22;1821;50.936;6.854;2023-04-03T02:17:12;2.40;99.90
3614;DHT22;1821;50.936;6.854;2023-04-03T02:17:54;2.30;99.90
3614;DHT22;1821;50.936;6.854;2023-04-03T02:18:37;2.30;99.90
3614;DHT22;1821;50.936;6.854;2023-04-03T02:19:19;3.60;99.90
3614;DHT22;1821;50.936;6.854;2023-04-03T02:20:01;2.20;99.90
3614;DHT22;1821;50.936;6.854;2023-04-03T02:20:43;2.10;99.90
3614;DHT22;1821;50.936;6.854;2023-04-03T02:21:25;2.30;99.90
3614;DHT22;1821;50.936;6.854;2023-04-03T02:22:07;2.10;99.90
3614;DHT22;1821;50.936;6.854;2023-04-03T02:22:49;2.30;99.90
3614;DHT22;1821;50.936;6.854;2023-04-03T02:23:31;2.00;99.90
3614;DHT22;1821;50.936;6.854;2023-04-03T02:24:16;2.60;99.90
3614;DHT22;1821;50.936;6.854;2023-04-03T02:24:58;1.90;99.90
3614;DHT22;1821;50.936;6.854;2023-04-03T02:25:42;1.90;99.90
3614;DHT22;1821;50.936;6.854;2023-04-03T02:26:24;2.00;99.90
3614;DHT22;1821;50.936;6.854;2023-04-03T02:27:07;1.90;99.90
3614;DHT22;1821;50.936;6.854;2023-04-03T02:27:49;2.50;99.90
3614;DHT22;1821;50.936;6.854;2023-04-03T02:28:31;1.90;99.90
3614;DHT22;1821;50.936;6.854;2023-04-03T02:29:13;2.30;99.90
3614;DHT22;1821;50.936;6.854;2023-04-03T02:29:55;2.10;99.90
3614;DHT22;1821;50.936;6.854;2023-04-03T02:30:37;2.40;99.90
3614;DHT22;1821;50.936;6.854;2023-04-03T02:31:19;1.90;99.90
3614;DHT22;1821;50.936;6.854;2023-04-03T02:32:03;2.00;99.90
3614;DHT22;1821;50.936;6.854;2023-04-03T02:32:47;2.00;99.90
3614;DHT22;1821;50.936;6.854;2023-04-03T02:33:29;2.00;99.90
3614;DHT22;1821;50.936;6.854;2023-04-03T02:34:11;2.70;99.90
3614;DHT22;1821;50.936;6.854;2023-04-03T02:34:53;1.90;99.90
3614;DHT22;1821;50.936;6.854;2023-04-03T02:35:35;2.30;99.90
3614;DHT22;1821;50.936;6.854;2023-04-03T02:36:18;2.00;99.90
3614;DHT22;1821;50.936;6.854;2023-04-03T02:37:00;1.90;99.90
3614;DHT22;1821;50.936;6.854;2023-04-03T02:37:42;1.80;99.90
3614;DHT22;1821;50.936;6.854;2023-04-03T02:38:27;1.80;99.90
3614;DHT22;1821;50.936;6.854;2023-04-03T02:39:09;1.70;99.90
3614;DHT22;1821;50.936;6.854;2023-04-03T02:39:51;1.90;99.90
3614;DHT22;1821;50.936;6.854;2023-04-03T02:40:33;2.40;99.90
3614;DHT22;1821;50.936;6.854;2023-04-03T02:41:16;2.30;99.90
3614;DHT22;1821;50.936;6.854;2023-04-03T02:41:58;1.80;99.90
3614;DHT22;1821;50.936;6.854;2023-04-03T02:42:40;2.40;99.90
3614;DHT22;1821;50.936;6.854;2023-04-03T02:43:22;1.90;99.90
3614;DHT22;1821;50.936;6.854;2023-04-03T02:44:08;1.70;99.90
3614;DHT22;1821;50.936;6.854;2023-04-03T02:44:50;2.10;99.90
3614;DHT22;1821;50.936;6.854;2023-04-03T02:45:32;2.30;99.90
3614;DHT22;1821;50.936;6.854;2023-04-03T02:46:16;2.00;99.90
3614;DHT22;1821;50.936;6.854;2023-04-03T02:46:58;1.80;99.90
3614;DHT22;1821;50.936;6.854;2023-04-03T02:47:40;1.70;99.90
3614;DHT22;1821;50.936;6.854;2023-04-03T02:48:23;2.20;99.90
3614;DHT22;1821;50.936;6.854;2023-04-03T02:49:05;2.10;99.90
3614;DHT22;1821;50.936;6.854;2023-04-03T02:49:47;1.60;99.90
3614;DHT22;1821;50.936;6.854;2023-04-03T02:50:30;1.60;99.90
3614;DHT22;1821;50.936;6.854;2023-04-03T02:51:12;1.60;99.90
3614;DHT22;1821;50.936;6.854;2023-04-03T02:51:54;1.70;99.90
3614;DHT22;1821;50.936;6.854;2023-04-03T02:52:36;1.70;99.90
3614;DHT22;1821;50.936;6.854;2023-04-03T02:53:18;1.60;99.90
3614;DHT22;1821;50.936;6.854;2023-04-03T02:54:00;2.20;99.90
3614;DHT22;1821;50.936;6.854;2023-04-03T02:54:42;2.00;99.90
3614;DHT22;1821;50.936;6.854;2023-04-03T02:55:26;1.60;99.90
3614;DHT22;1821;50.936;6.854;2023-04-03T02:56:08;2.10;99.90
3614;DHT22;1821;50.936;6.854;2023-04-03T02:56:51;1.60;99.90
3614;DHT22;1821;50.936;6.854;2023-04-03T02:57:33;1.90;99.90
3614;DHT22;1821;50.936;6.854;2023-04-03T02:58:17;1.90;99.90
3614;DHT22;1821;50.936;6.854;2023-04-03T02:59:01;2.00;99.90
3614;DHT22;1821;50.936;6.854;2023-04-03T02:59:43;1.70;99.90
3614;DHT22;1821;50.936;6.854;2023-04-03T03:00:25;2.10;99.90
3614;DHT22;1821;50.936;6.854;2023-04-03T03:01:07;1.30;99.90
3614;DHT22;1821;50.936;6.854;2023-04-03T03:01:51;1.90;99.90
3614;DHT22;1821;50.936;6.854;2023-04-03T03:02:34;1.90;99.90
3614;DHT22;1821;50.936;6.854;2023-04-03T03:03:16;1.80;99.90
3614;DHT22;1821;50.936;6.854;2023-04-03T03:04:01;1.40;99.90
3614;DHT22;1821;50.936;6.854;2023-04-03T03:04:43;1.80;99.90
3614;DHT22;1821;50.936;6.854;2023-04-03T03:05:26;1.60;99.90
3614;DHT22;1821;50.936;6.854;2023-04-03T03:06:11;1.40;99.90
3614;DHT22;1821;50.936;6.854;2023-04-03T03:06:53;1.70;99.90
3614;DHT22;1821;50.936;6.854;2023-04-03T03:07:36;1.50;99.90
3614;DHT22;1821;50.936;6.854;2023-04-03T03:08:18;1.90;99.90
3614;DHT22;1821;50.936;6.854;2023-04-03T03:09:02;1.50;99.90
3614;DHT22;1821;50.936;6.854;2023-04-03T03:09:47;1.30;99.90
3614;DHT22;1821;50.936;6.854;2023-04-03T03:10:29;1.70;99.90
3614;DHT22;1821;50.936;6.854;2023-04-03T03:11:12;1.50;99.90
3614;DHT22;1821;50.936;6.854;2023-04-03T03:11:54;1.30;99.90
3614;DHT22;1821;50.936;6.854;2023-04-03T03:12:36;1.30;99.90
3614;DHT22;1821;50.936;6.854;2023-04-03T03:13:18;2.60;99.90
3614;DHT22;1821;50.936;6.854;2023-04-03T03:14:00;1.80;99.90
3614;DHT22;1821;50.936;6.854;2023-04-03T03:14:42;1.90;99.90
3614;DHT22;1821;50.936;6.854;2023-04-03T03:15:27;1.40;99.90
3614;DHT22;1821;50.936;6.854;2023-04-03T03:16:09;1.70;99.90
3614;DHT22;1821;50.936;6.854;2023-04-03T03:16:51;3.50;99.90
3614;DHT22;1821;50.936;6.854;2023-04-03T03:17:33;1.60;99.90
3614;DHT22;1821;50.936;6.854;2023-04-03T03:18:16;1.30;99.90
3614;DHT22;1821;50.936;6.854;2023-04-03T03:18:58;1.70;99.90
3614;DHT22;1821;50.936;6.854;2023-04-03T03:19:41;1.70;99.90
3614;DHT22;1821;50.936;6.854;2023-04-03T03:20:23;1.80;99.90
3614;DHT22;1821;50.936;6.854;2023-04-03T03:21:05;1.50;99.90
3614;DHT22;1821;50.936;6.854;2023-04-03T03:21:47;1.80;99.90
3614;DHT22;1821;50.936;6.854;2023-04-03T03:22:29;1.70;99.90
3614;DHT22;1821;50.936;6.854;2023-04-03T03:23:13;1.60;99.90
3614;DHT22;1821;50.936;6.854;2023-04-03T03:23:57;1.20;99.90
3614;DHT22;1821;50.936;6.854;2023-04-03T03:24:41;1.60;99.90
3614;DHT22;1821;50.936;6.854;2023-04-03T03:25:23;1.20;99.90
3614;DHT22;1821;50.936;6.854;2023-04-03T03:26:08;1.20;99.90
3614;DHT22;1821;50.936;6.854;2023-04-03T03:26:51;1.80;99.90
3614;DHT22;1821;50.936;6.854;2023-04-03T03:27:32;1.30;99.90
3614;DHT22;1821;50.936;6.854;2023-04-03T03:28:15;1.10;99.90
3614;DHT22;1821;50.936;6.854;2023-04-03T03:28:57;1.60;99.90
3614;DHT22;1821;50.936;6.854;2023-04-03T03:29:39;2.00;99.90
3614;DHT22;1821;50.936;6.854;2023-04-03T03:30:21;1.60;99.90
3614;DHT22;1821;50.936;6.854;2023-04-03T03:31:03;1.60;99.90
3614;DHT22;1821;50.936;6.854;2023-04-03T03:31:45;1.10;99.90
3614;DHT22;1821;50.936;6.854;2023-04-03T03:32:27;2.20;99.90
3614;DHT22;1821;50.936;6.854;2023-04-03T03:33:12;1.10;99.90
3614;DHT22;1821;50.936;6.854;2023-04-03T03:33:54;1.50;99.90
3614;DHT22;1821;50.936;6.854;2023-04-03T03:34:36;2.60;99.90
3614;DHT22;1821;50.936;6.854;2023-04-03T03:35:18;1.90;99.90
3614;DHT22;1821;50.936;6.854;2023-04-03T03:36:00;1.60;99.90
3614;DHT22;1821;50.936;6.854;2023-04-03T03:36:44;1.30;99.90
3614;DHT22;1821;50.936;6.854;2023-04-03T03:37:26;1.80;99.90
3614;DHT22;1821;50.936;6.854;2023-04-03T03:38:09;1.80;99.90
3614;DHT22;1821;50.936;6.854;2023-04-03T03:38:51;1.00;99.90
3614;DHT22;1821;50.936;6.854;2023-04-03T03:39:33;1.80;99.90
3614;DHT22;1821;50.936;6.854;2023-04-03T03:40:15;1.30;99.90
3614;DHT22;1821;50.936;6.854;2023-04-03T03:40:58;1.20;99.90
3614;DHT22;1821;50.936;6.854;2023-04-03T03:41:41;1.20;99.90
3614;DHT22;1821;50.936;6.854;2023-04-03T03:42:23;1.50;99.90
3614;DHT22;1821;50.936;6.854;2023-04-03T03:43:04;1.60;99.90
3614;DHT22;1821;50.936;6.854;2023-04-03T03:43:46;1.70;99.90
3614;DHT22;1821;50.936;6.854;2023-04-03T03:44:28;1.50;99.90
3614;DHT22;1821;50.936;6.854;2023-04-03T03:45:10;1.10;99.90
3614;DHT22;1821;50.936;6.854;2023-04-03T03:45:53;1.50;99.90
3614;DHT22;1821;50.936;6.854;2023-04-03T03:46:36;1.40;99.90
3614;DHT22;1821;50.936;6.854;2023-04-03T03:47:18;1.20;99.90
3614;DHT22;1821;50.936;6.854;2023-04-03T03:48:00;1.50;99.90
3614;DHT22;1821;50.936;6.854;2023-04-03T03:48:42;1.30;99.90
3614;DHT22;1821;50.936;6.854;2023-04-03T03:49:24;1.40;99.90
3614;DHT22;1821;50.936;6.854;2023-04-03T03:50:06;1.80;99.90
3614;DHT22;1821;50.936;6.854;2023-04-03T03:50:49;1.50;99.90
3614;DHT22;1821;50.936;6.854;2023-04-03T03:51:31;1.50;99.90
3614;DHT22;1821;50.936;6.854;2023-04-03T03:52:13;1.50;99.90
3614;DHT22;1821;50.936;6.854;2023-04-03T03:52:55;1.70;99.90
3614;DHT22;1821;50.936;6.854;2023-04-03T03:53:36;1.60;99.90
3614;DHT22;1821;50.936;6.854;2023-04-03T03:54:19;1.60;99.90
3614;DHT22;1821;50.936;6.854;2023-04-03T03:55:01;1.60;99.90
3614;DHT22;1821;50.936;6.854;2023-04-03T03:55:43;1.60;99.90
3614;DHT22;1821;50.936;6.854;2023-04-03T03:56:24;1.60;99.90
3614;DHT22;1821;50.936;6.854;2023-04-03T03:57:06;1.60;99.90
3614;DHT22;1821;50.936;6.854;2023-04-03T03:57:48;1.60;99.90
3614;DHT22;1821;50.936;6.854;2023-04-03T03:58:30;1.70;99.90
3614;DHT22;1821;50.936;6.854;2023-04-03T03:59:13;1.90;99.90
3614;DHT22;1821;50.936;6.854;2023-04-03T03:59:55;1.60;99.90
3614;DHT22;1821;50.936;6.854;2023-04-03T04:00:40;2.30;99.90
3614;DHT22;1821;50.936;6.854;2023-04-03T04:01:23;1.60;99.90
3614;DHT22;1821;50.936;6.854;2023-04-03T04:02:06;2.00;99.90
3614;DHT22;1821;50.936;6.854;2023-04-03T04:02:48;1.80;99.90
3614;DHT22;1821;50.936;6.854;2023-04-03T04:03:29;2.00;99.90
3614;DHT22;1821;50.936;6.854;2023-04-03T04:04:12;1.70;99.90
3614;DHT22;1821;50.936;6.854;2023-04-03T04:04:54;2.20;99.90
3614;DHT22;1821;50.936;6.854;2023-04-03T04:05:36;2.00;99.90
3614;DHT22;1821;50.936;6.854;2023-04-03T04:06:19;2.00;99.90
3614;DHT22;1821;50.936;6.854;2023-04-03T04:07:02;1.80;99.90
3614;DHT22;1821;50.936;6.854;2023-04-03T04:07:47;1.90;99.90
3614;DHT22;1821;50.936;6.854;2023-04-03T04:08:29;1.90;99.90
3614;DHT22;1821;50.936;6.854;2023-04-03T04:09:11;3.40;99.90
3614;DHT22;1821;50.936;6.854;2023-04-03T04:09:54;1.60;99.90
3614;DHT22;1821;50.936;6.854;2023-04-03T04:10:37;1.90;99.90
3614;DHT22;1821;50.936;6.854;2023-04-03T04:11:19;2.20;99.90
3614;DHT22;1821;50.936;6.854;2023-04-03T04:12:04;1.70;99.90
3614;DHT22;1821;50.936;6.854;2023-04-03T04:12:46;1.50;99.90
3614;DHT22;1821;50.936;6.854;2023-04-03T04:13:27;1.70;99.90
3614;DHT22;1821;50.936;6.854;2023-04-03T04:14:12;1.70;99.90
3614;DHT22;1821;50.936;6.854;2023-04-03T04:14:54;1.70;99.90
3614;DHT22;1821;50.936;6.854;2023-04-03T04:15:36;1.50;99.90
3614;DHT22;1821;50.936;6.854;2023-04-03T04:16:19;1.90;99.90
3614;DHT22;1821;50.936;6.854;2023-04-03T04:17:01;1.70;99.90
3614;DHT22;1821;50.936;6.854;2023-04-03T04:17:44;1.70;99.90
3614;DHT22;1821;50.936;6.854;2023-04-03T04:18:26;1.60;99.90
3614;DHT22;1821;50.936;6.854;2023-04-03T04:19:08;1.70;99.90
3614;DHT22;1821;50.936;6.854;2023-04-03T04:19:51;1.80;99.90
3614;DHT22;1821;50.936;6.854;2023-04-03T04:20:33;1.60;99.90
3614;DHT22;1821;50.936;6.854;2023-04-03T04:21:15;1.80;99.90
3614;DHT22;1821;50.936;6.854;2023-04-03T04:21:57;1.50;99.90
3614;DHT22;1821;50.936;6.854;2023-04-03T04:22:39;1.50;99.90
3614;DHT22;1821;50.936;6.854;2023-04-03T04:23:21;1.50;99.90
3614;DHT22;1821;50.936;6.854;2023-04-03T04:24:04;1.50;99.90
3614;DHT22;1821;50.936;6.854;2023-04-03T04:24:46;1.70;99.90
3614;DHT22;1821;50.936;6.854;2023-04-03T04:25:27;1.60;99.90
3614;DHT22;1821;50.936;6.854;2023-04-03T04:26:12;1.50;99.90
3614;DHT22;1821;50.936;6.854;2023-04-03T04:26:54;1.40;99.90
3614;DHT22;1821;50.936;6.854;2023-04-03T04:27:36;1.90;99.90
3614;DHT22;1821;50.936;6.854;2023-04-03T04:28:18;1.70;99.90
3614;DHT22;1821;50.936;6.854;2023-04-03T04:29:01;1.90;99.90
3614;DHT22;1821;50.936;6.854;2023-04-03T04:29:42;1.40;99.90
3614;DHT22;1821;50.936;6.854;2023-04-03T04:30:26;1.50;99.90
3614;DHT22;1821;50.936;6.854;2023-04-03T04:31:09;1.60;99.90
3614;DHT22;1821;50.936;6.854;2023-04-03T04:31:51;1.50;99.90
3614;DHT22;1821;50.936;6.854;2023-04-03T04:32:32;1.50;99.90
3614;DHT22;1821;50.936;6.854;2023-04-03T04:33:16;1.30;99.90
3614;DHT22;1821;50.936;6.854;2023-04-03T04:33:59;1.90;99.90
3614;DHT22;1821;50.936;6.854;2023-04-03T04:34:41;1.70;99.90
3614;DHT22;1821;50.936;6.854;2023-04-03T04:35:23;1.40;99.90
3614;DHT22;1821;50.936;6.854;2023-04-03T04:36:05;1.40;99.90
3614;DHT22;1821;50.936;6.854;2023-04-03T04:36:50;1.50;99.90
3614;DHT22;1821;50.936;6.854;2023-04-03T04:37:32;1.90;99.90
3614;DHT22;1821;50.936;6.854;2023-04-03T04:38:14;1.60;99.90
3614;DHT22;1821;50.936;6.854;2023-04-03T04:38:56;2.00;99.90
3614;DHT22;1821;50.936;6.854;2023-04-03T04:39:39;1.70;99.90
3614;DHT22;1821;50.936;6.854;2023-04-03T04:40:22;1.50;99.90
3614;DHT22;1821;50.936;6.854;2023-04-03T04:41:04;3.60;99.90
3614;DHT22;1821;50.936;6.854;2023-04-03T04:41:46;1.70;99.90
3614;DHT22;1821;50.936;6.854;2023-04-03T04:42:28;1.50;99.90
3614;DHT22;1821;50.936;6.854;2023-04-03T04:43:10;1.60;99.90
3614;DHT22;1821;50.936;6.854;2023-04-03T04:43:56;1.60;99.90
3614;DHT22;1821;50.936;6.854;2023-04-03T04:44:41;2.20;99.90
3614;DHT22;1821;50.936;6.854;2023-04-03T04:45:23;2.20;99.90
3614;DHT22;1821;50.936;6.854;2023-04-03T04:46:07;1.60;99.90
3614;DHT22;1821;50.936;6.854;2023-04-03T04:46:51;1.80;99.90
3614;DHT22;1821;50.936;6.854;2023-04-03T04:47:33;3.80;99.90
3614;DHT22;1821;50.936;6.854;2023-04-03T04:48:15;1.40;99.90
3614;DHT22;1821;50.936;6.854;2023-04-03T04:49:00;1.50;99.90
3614;DHT22;1821;50.936;6.854;2023-04-03T04:49:42;1.90;99.90
3614;DHT22;1821;50.936;6.854;2023-04-03T04:50:24;1.40;99.90
3614;DHT22;1821;50.936;6.854;2023-04-03T04:51:06;2.20;99.90
3614;DHT22;1821;50.936;6.854;2023-04-03T04:51:48;2.10;99.90